createdAt,value
2023-04-01T00:00:01.655Z,99.90
2023-04-01T00:00:11.052Z,99.90
2023-04-01T00:00:20.440Z,99.90
2023-04-01T00:00:29.845Z,99.90
2023-04-01T00:00:39.251Z,99.90
2023-04-01T00:00:58.006Z,99.90
2023-04-01T00:01:07.415Z,99.90
2023-04-01T00:01:16.814Z,99.90
2023-04-01T00:01:26.307Z,99.90
2023-04-01T00:01:35.702Z,99.90
2023-04-01T00:01:45.080Z,99.90
2023-04-01T00:02:03.877Z,99.90
2023-04-01T00:02:13.323Z,99.90
2023-04-01T00:02:22.666Z,99.90
2023-04-01T00:02:32.099Z,99.90
2023-04-01T00:02:41.660Z,99.90
2023-04-01T00:02:51.033Z,99.90
2023-04-01T00:03:09.800Z,99.90
2023-04-01T00:03:19.240Z,99.90
2023-04-01T00:03:28.654Z,99.90
2023-04-01T00:03:37.944Z,99.90
2023-04-01T00:03:47.380Z,99.90
2023-04-01T00:03:56.745Z,99.90
2023-04-01T00:04:15.540Z,99.90
2023-04-01T00:04:25.014Z,99.90
2023-04-01T00:04:34.395Z,99.90
2023-04-01T00:04:43.897Z,99.90
2023-04-01T00:04:53.162Z,99.90
2023-04-01T00:05:02.552Z,99.80
2023-04-01T00:05:21.353Z,99.90
2023-04-01T00:05:31.212Z,99.90
2023-04-01T00:05:40.150Z,99.90
2023-04-01T00:05:49.553Z,99.90
2023-04-01T00:05:58.987Z,99.90
2023-04-01T00:06:08.364Z,99.90
2023-04-01T00:06:27.137Z,99.90
2023-04-01T00:06:36.510Z,99.90
2023-04-01T00:06:45.905Z,99.90
2023-04-01T00:06:55.362Z,99.90
2023-04-01T00:07:04.734Z,99.90
2023-04-01T00:07:14.158Z,99.90
2023-04-01T00:07:33.041Z,99.90
2023-04-01T00:07:42.442Z,99.90
2023-04-01T00:07:51.837Z,99.90
2023-04-01T00:08:01.267Z,99.90
2023-04-01T00:08:10.674Z,99.90
2023-04-01T00:08:20.061Z,99.90
2023-04-01T00:08:38.916Z,99.90
2023-04-01T00:08:48.317Z,99.90
2023-04-01T00:08:57.724Z,99.90
2023-04-01T00:09:07.130Z,99.90
2023-04-01T00:09:16.525Z,99.90
2023-04-01T00:09:25.910Z,99.90
2023-04-01T00:09:44.694Z,99.90
2023-04-01T00:09:55.448Z,99.90
2023-04-01T00:10:04.970Z,99.90
2023-04-01T00:10:14.337Z,99.90
2023-04-01T00:10:23.735Z,99.90
2023-04-01T00:10:33.181Z,99.90
2023-04-01T00:10:51.989Z,99.90
2023-04-01T00:11:01.452Z,99.90
2023-04-01T00:11:10.828Z,99.90
2023-04-01T00:11:20.554Z,99.90
2023-04-01T00:11:29.644Z,99.90
2023-04-01T00:11:39.047Z,99.90
2023-04-01T00:11:57.868Z,99.90
2023-04-01T00:12:07.238Z,99.90
2023-04-01T00:12:16.631Z,99.90
2023-04-01T00:12:26.054Z,99.90
2023-04-01T00:12:35.429Z,99.90
2023-04-01T00:12:44.848Z,99.90
2023-04-01T00:13:03.660Z,99.90
2023-04-01T00:13:13.086Z,99.90
2023-04-01T00:13:22.465Z,99.90
2023-04-01T00:13:31.848Z,99.90
2023-04-01T00:13:41.269Z,99.90
2023-04-01T00:13:50.659Z,99.90
2023-04-01T00:14:09.471Z,99.90
2023-04-01T00:14:18.884Z,99.90
2023-04-01T00:14:28.271Z,99.90
2023-04-01T00:14:37.651Z,99.90
2023-04-01T00:14:47.077Z,99.90
2023-04-01T00:14:56.503Z,99.90
2023-04-01T00:15:15.324Z,99.90
2023-04-01T00:15:24.730Z,99.90
2023-04-01T00:15:34.295Z,99.90
2023-04-01T00:15:43.545Z,99.90
2023-04-01T00:15:53.484Z,99.90
2023-04-01T00:16:03.628Z,99.90
2023-04-01T00:16:22.552Z,99.90
2023-04-01T00:16:30.633Z,99.90
2023-04-01T00:16:40.068Z,99.90
2023-04-01T00:16:49.480Z,99.90
2023-04-01T00:16:58.841Z,99.90
2023-04-01T00:17:08.284Z,99.90
2023-04-01T00:17:27.009Z,99.90
2023-04-01T00:17:36.417Z,99.90
2023-04-01T00:17:45.833Z,99.90
2023-04-01T00:17:55.254Z,99.90
2023-04-01T00:18:04.636Z,99.90
2023-04-01T00:18:13.964Z,99.90
2023-04-01T00:18:32.776Z,99.90
2023-04-01T00:18:42.191Z,99.90
2023-04-01T00:18:51.592Z,99.90
2023-04-01T00:19:00.975Z,99.90
2023-04-01T00:19:10.352Z,99.90
2023-04-01T00:19:19.756Z,99.90
2023-04-01T00:19:38.546Z,99.90
2023-04-01T00:19:47.943Z,99.90
2023-04-01T00:19:57.347Z,99.90
2023-04-01T00:20:06.750Z,99.90
2023-04-01T00:20:16.171Z,99.90
2023-04-01T00:20:25.540Z,99.90
2023-04-01T00:20:44.366Z,99.90
2023-04-01T00:20:53.741Z,99.90
2023-04-01T00:21:03.208Z,99.90
2023-04-01T00:21:12.589Z,99.90
2023-04-01T00:21:21.986Z,99.90
2023-04-01T00:21:31.481Z,99.90
2023-04-01T00:21:50.267Z,99.90
2023-04-01T00:21:59.662Z,99.90
2023-04-01T00:22:09.064Z,99.90
2023-04-01T00:22:18.464Z,99.90
2023-04-01T00:22:27.844Z,99.90
2023-04-01T00:22:37.243Z,99.90
2023-04-01T00:22:56.089Z,99.90
2023-04-01T00:23:05.471Z,99.70
2023-04-01T00:23:14.883Z,99.70
2023-04-01T00:23:24.234Z,99.60
2023-04-01T00:23:33.654Z,99.60
2023-04-01T00:23:43.071Z,99.60
2023-04-01T00:24:01.930Z,99.40
2023-04-01T00:24:11.345Z,99.30
2023-04-01T00:24:20.761Z,99.20
2023-04-01T00:24:30.124Z,99.20
2023-04-01T00:24:39.521Z,99.30
2023-04-01T00:24:48.895Z,99.30
2023-04-01T00:25:07.739Z,99.40
2023-04-01T00:25:17.130Z,99.20
2023-04-01T00:25:26.507Z,99.20
2023-04-01T00:25:35.891Z,99.10
2023-04-01T00:25:45.270Z,99.20
2023-04-01T00:25:54.668Z,99.30
2023-04-01T00:26:13.698Z,99.10
2023-04-01T00:26:23.226Z,98.90
2023-04-01T00:26:32.241Z,98.80
2023-04-01T00:26:41.633Z,98.80
2023-04-01T00:26:51.043Z,98.90
2023-04-01T00:27:00.405Z,98.90
2023-04-01T00:27:19.194Z,98.60
2023-04-01T00:27:28.560Z,98.60
2023-04-01T00:27:37.954Z,98.70
2023-04-01T00:27:47.346Z,98.80
2023-04-01T00:27:56.751Z,98.90
2023-04-01T00:28:06.144Z,99.00
2023-04-01T00:28:24.910Z,99.00
2023-04-01T00:28:34.309Z,99.00
2023-04-01T00:28:43.698Z,99.00
2023-04-01T00:28:53.079Z,99.00
2023-04-01T00:29:02.507Z,99.00
2023-04-01T00:29:11.878Z,99.00
2023-04-01T00:29:30.696Z,98.70
2023-04-01T00:29:40.095Z,98.70
2023-04-01T00:29:49.476Z,98.80
2023-04-01T00:29:58.891Z,98.80
2023-04-01T00:30:08.272Z,98.90
2023-04-01T00:30:17.657Z,98.90
2023-04-01T00:30:36.513Z,99.00
2023-04-01T00:30:45.901Z,99.10
2023-04-01T00:30:55.286Z,99.00
2023-04-01T00:31:04.685Z,99.00
2023-04-01T00:31:14.093Z,99.00
2023-04-01T00:31:23.499Z,99.10
2023-04-01T00:31:42.332Z,99.30
2023-04-01T00:31:51.693Z,99.20
2023-04-01T00:32:01.299Z,99.10
2023-04-01T00:32:10.535Z,98.90
2023-04-01T00:32:19.940Z,98.80
2023-04-01T00:32:29.310Z,98.90
2023-04-01T00:32:48.137Z,98.90
2023-04-01T00:32:57.559Z,98.90
2023-04-01T00:33:07.039Z,98.90
2023-04-01T00:33:16.379Z,99.00
2023-04-01T00:33:25.770Z,99.10
2023-04-01T00:33:35.149Z,99.20
2023-04-01T00:33:53.949Z,99.20
2023-04-01T00:34:03.352Z,99.30
2023-04-01T00:34:12.738Z,99.30
2023-04-01T00:34:22.189Z,99.20
2023-04-01T00:34:31.567Z,98.90
2023-04-01T00:34:40.953Z,98.90
2023-04-01T00:34:59.735Z,98.90
2023-04-01T00:35:09.143Z,98.90
2023-04-01T00:35:18.527Z,98.90
2023-04-01T00:35:27.943Z,98.90
2023-04-01T00:35:37.352Z,99.20
2023-04-01T00:35:46.741Z,99.10
2023-04-01T00:36:05.599Z,98.90
2023-04-01T00:36:15.012Z,98.90
2023-04-01T00:36:24.435Z,98.90
2023-04-01T00:36:33.810Z,98.90
2023-04-01T00:36:43.123Z,99.10
2023-04-01T00:36:52.550Z,99.10
2023-04-01T00:37:11.328Z,98.90
2023-04-01T00:37:20.714Z,98.80
2023-04-01T00:37:30.115Z,98.90
2023-04-01T00:37:39.536Z,98.80
2023-04-01T00:37:48.916Z,98.80
2023-04-01T00:37:58.320Z,98.80
2023-04-01T00:38:17.087Z,98.60
2023-04-01T00:38:26.461Z,98.40
2023-04-01T00:38:35.848Z,98.40
2023-04-01T00:38:45.239Z,98.40
2023-04-01T00:38:54.629Z,98.40
2023-04-01T00:39:04.067Z,98.20
2023-04-01T00:39:22.830Z,98.00
2023-04-01T00:39:32.314Z,98.00
2023-04-01T00:39:41.614Z,98.00
2023-04-01T00:39:51.007Z,97.80
2023-04-01T00:40:00.391Z,97.80
2023-04-01T00:40:09.766Z,97.80
2023-04-01T00:40:28.547Z,97.90
2023-04-01T00:40:37.920Z,98.00
2023-04-01T00:40:47.335Z,98.00
2023-04-01T00:40:56.729Z,97.90
2023-04-01T00:41:06.122Z,97.60
2023-04-01T00:41:15.692Z,97.70
2023-04-01T00:41:34.502Z,97.70
2023-04-01T00:41:46.720Z,97.80
2023-04-01T00:41:56.125Z,97.70
2023-04-01T00:42:05.511Z,97.60
2023-04-01T00:42:14.906Z,97.50
2023-04-01T00:42:24.282Z,97.60
2023-04-01T00:42:43.109Z,97.60
2023-04-01T00:42:52.472Z,97.60
2023-04-01T00:43:01.848Z,97.50
2023-04-01T00:43:11.230Z,97.30
2023-04-01T00:43:23.708Z,97.10
2023-04-01T00:43:33.092Z,97.10
2023-04-01T00:43:51.928Z,97.10
2023-04-01T00:44:01.250Z,97.20
2023-04-01T00:44:10.623Z,97.00
2023-04-01T00:44:20.034Z,97.20
2023-04-01T00:44:29.427Z,97.10
2023-04-01T00:44:38.804Z,97.20
2023-04-01T00:44:57.580Z,97.30
2023-04-01T00:45:06.966Z,97.40
2023-04-01T00:45:16.352Z,97.30
2023-04-01T00:45:25.748Z,97.40
2023-04-01T00:45:35.118Z,97.40
2023-04-01T00:45:44.544Z,97.40
2023-04-01T00:46:03.362Z,97.30
2023-04-01T00:46:12.854Z,97.30
2023-04-01T00:46:22.236Z,97.20
2023-04-01T00:46:31.613Z,97.20
2023-04-01T00:46:40.992Z,97.20
2023-04-01T00:46:50.409Z,97.20
2023-04-01T00:47:09.267Z,97.10
2023-04-01T00:47:18.587Z,97.10
2023-04-01T00:47:28.023Z,97.00
2023-04-01T00:47:37.494Z,97.00
2023-04-01T00:47:46.796Z,97.00
2023-04-01T00:47:56.249Z,96.90
2023-04-01T00:48:17.769Z,96.80
2023-04-01T00:48:27.158Z,96.40
2023-04-01T00:48:36.545Z,96.30
2023-04-01T00:48:45.960Z,96.20
2023-04-01T00:48:55.377Z,96.30
2023-04-01T00:49:04.761Z,96.30
2023-04-01T00:49:23.574Z,96.40
2023-04-01T00:49:32.961Z,96.20
2023-04-01T00:49:42.348Z,96.20
2023-04-01T00:49:51.780Z,96.30
2023-04-01T00:50:01.219Z,96.40
2023-04-01T00:50:10.604Z,96.40
2023-04-01T00:50:29.426Z,96.40
2023-04-01T00:50:38.833Z,96.60
2023-04-01T00:50:48.227Z,96.80
2023-04-01T00:50:57.681Z,96.80
2023-04-01T00:51:07.059Z,97.00
2023-04-01T00:51:16.471Z,97.00
2023-04-01T00:51:35.236Z,97.00
2023-04-01T00:51:44.652Z,96.90
2023-04-01T00:51:54.046Z,96.90
2023-04-01T00:52:03.566Z,97.00
2023-04-01T00:52:12.933Z,97.10
2023-04-01T00:52:22.334Z,97.20
2023-04-01T00:52:41.123Z,97.40
2023-04-01T00:52:50.513Z,97.50
2023-04-01T00:52:59.910Z,97.60
2023-04-01T00:53:09.314Z,97.80
2023-04-01T00:53:18.703Z,98.00
2023-04-01T00:53:28.089Z,98.10
2023-04-01T00:53:46.854Z,98.20
2023-04-01T00:53:56.241Z,98.20
2023-04-01T00:54:05.678Z,98.30
2023-04-01T00:54:15.071Z,98.40
2023-04-01T00:54:24.487Z,98.40
2023-04-01T00:54:33.882Z,98.30
2023-04-01T00:54:52.701Z,98.30
2023-04-01T00:55:02.176Z,98.30
2023-04-01T00:55:11.549Z,98.40
2023-04-01T00:55:20.934Z,98.40
2023-04-01T00:55:30.660Z,98.50
2023-04-01T00:55:39.697Z,98.40
2023-04-01T00:55:58.531Z,98.50
2023-04-01T00:56:07.947Z,98.40
2023-04-01T00:56:17.350Z,98.40
2023-04-01T00:56:26.759Z,98.20
2023-04-01T00:56:36.141Z,98.10
2023-04-01T00:56:45.563Z,98.10
2023-04-01T00:57:04.409Z,98.10
2023-04-01T00:57:13.802Z,98.00
2023-04-01T00:57:23.209Z,98.00
2023-04-01T00:57:32.656Z,98.00
2023-04-01T00:57:41.956Z,98.00
2023-04-01T00:57:51.346Z,98.00
2023-04-01T00:58:10.160Z,98.10
2023-04-01T00:58:19.556Z,98.20
2023-04-01T00:58:28.946Z,98.20
2023-04-01T00:58:38.383Z,98.10
2023-04-01T00:58:47.788Z,98.10
2023-04-01T00:58:57.210Z,98.00
2023-04-01T00:59:16.005Z,97.70
2023-04-01T00:59:25.390Z,97.70
2023-04-01T00:59:34.780Z,97.70
2023-04-01T00:59:44.166Z,97.70
2023-04-01T00:59:53.600Z,97.70
2023-04-01T01:00:03.025Z,97.70
2023-04-01T01:00:21.794Z,97.60
2023-04-01T01:00:31.167Z,97.60
2023-04-01T01:00:40.641Z,97.60
2023-04-01T01:00:50.125Z,97.50
2023-04-01T01:00:59.432Z,97.50
2023-04-01T01:01:08.887Z,97.60
2023-04-01T01:01:27.697Z,97.70
2023-04-01T01:01:37.045Z,97.80
2023-04-01T01:01:46.529Z,97.80
2023-04-01T01:01:55.883Z,97.80
2023-04-01T01:02:05.283Z,97.80
2023-04-01T01:02:14.674Z,97.80
2023-04-01T01:02:33.549Z,97.80
2023-04-01T01:02:42.998Z,97.70
2023-04-01T01:02:52.320Z,97.70
2023-04-01T01:03:01.671Z,97.60
2023-04-01T01:03:11.039Z,97.70
2023-04-01T01:03:20.492Z,97.80
2023-04-01T01:03:39.175Z,97.80
2023-04-01T01:03:48.583Z,97.90
2023-04-01T01:03:57.976Z,98.00
2023-04-01T01:04:07.343Z,98.10
2023-04-01T01:04:16.811Z,98.20
2023-04-01T01:04:26.190Z,98.20
2023-04-01T01:04:45.006Z,98.20
2023-04-01T01:04:54.387Z,98.20
2023-04-01T01:05:03.782Z,98.10
2023-04-01T01:05:13.179Z,98.10
2023-04-01T01:05:22.702Z,98.10
2023-04-01T01:05:34.156Z,98.10
2023-04-01T01:05:50.870Z,98.10
2023-04-01T01:06:00.173Z,98.10
2023-04-01T01:06:09.512Z,98.00
2023-04-01T01:06:18.885Z,97.80
2023-04-01T01:06:28.273Z,97.80
2023-04-01T01:06:37.648Z,97.80
2023-04-01T01:06:56.439Z,97.80
2023-04-01T01:07:05.834Z,97.90
2023-04-01T01:07:15.231Z,97.90
2023-04-01T01:07:24.597Z,97.80
2023-04-01T01:07:33.984Z,98.00
2023-04-01T01:07:43.366Z,98.00
2023-04-01T01:08:02.203Z,98.10
2023-04-01T01:08:11.566Z,98.30
2023-04-01T01:08:20.940Z,98.30
2023-04-01T01:08:30.326Z,98.30
2023-04-01T01:08:39.725Z,98.30
2023-04-01T01:08:49.135Z,98.30
2023-04-01T01:09:07.926Z,98.40
2023-04-01T01:09:17.331Z,98.40
2023-04-01T01:09:26.750Z,98.30
2023-04-01T01:09:36.129Z,98.30
2023-04-01T01:09:45.504Z,98.20
2023-04-01T01:09:54.886Z,98.20
2023-04-01T01:10:13.666Z,98.20
2023-04-01T01:10:23.036Z,98.20
2023-04-01T01:10:32.494Z,98.20
2023-04-01T01:10:41.892Z,98.20
2023-04-01T01:10:51.503Z,98.20
2023-04-01T01:11:01.183Z,98.30
2023-04-01T01:11:20.616Z,98.40
2023-04-01T01:11:33.512Z,98.50
2023-04-01T01:11:43.812Z,98.50
2023-04-01T01:11:49.007Z,98.40
2023-04-01T01:11:58.731Z,98.50
2023-04-01T01:12:08.363Z,98.50
2023-04-01T01:12:27.416Z,98.60
2023-04-01T01:12:36.836Z,98.40
2023-04-01T01:12:46.334Z,98.30
2023-04-01T01:12:55.659Z,98.00
2023-04-01T01:13:05.078Z,98.00
2023-04-01T01:13:14.474Z,98.00
2023-04-01T01:13:33.232Z,97.70
2023-04-01T01:13:42.600Z,97.50
2023-04-01T01:13:51.989Z,97.40
2023-04-01T01:14:01.435Z,97.40
2023-04-01T01:14:10.867Z,97.40
2023-04-01T01:14:20.259Z,97.40
2023-04-01T01:14:39.083Z,97.40
2023-04-01T01:14:48.458Z,97.50
2023-04-01T01:14:57.869Z,97.50
2023-04-01T01:15:10.304Z,97.70
2023-04-01T01:15:19.688Z,97.70
2023-04-01T01:15:29.125Z,97.70
2023-04-01T01:15:47.868Z,97.80
2023-04-01T01:15:57.242Z,97.90
2023-04-01T01:16:06.664Z,97.90
2023-04-01T01:16:16.058Z,97.90
2023-04-01T01:16:25.484Z,97.80
2023-04-01T01:16:34.840Z,97.60
2023-04-01T01:16:53.697Z,97.30
2023-04-01T01:17:03.015Z,97.20
2023-04-01T01:17:12.411Z,97.20
2023-04-01T01:17:21.819Z,97.30
2023-04-01T01:17:31.211Z,97.30
2023-04-01T01:17:40.593Z,97.20
2023-04-01T01:17:59.385Z,97.20
2023-04-01T01:18:08.796Z,97.10
2023-04-01T01:18:18.132Z,97.00
2023-04-01T01:18:27.513Z,96.80
2023-04-01T01:18:36.919Z,96.80
2023-04-01T01:18:46.319Z,96.70
2023-04-01T01:19:05.118Z,96.70
2023-04-01T01:19:14.548Z,96.80
2023-04-01T01:19:23.953Z,97.00
2023-04-01T01:19:33.368Z,97.00
2023-04-01T01:19:42.759Z,96.90
2023-04-01T01:19:52.137Z,96.70
2023-04-01T01:20:19.223Z,96.70
2023-04-01T01:20:26.609Z,96.80
2023-04-01T01:20:29.780Z,96.90
2023-04-01T01:20:39.178Z,97.00
2023-04-01T01:20:48.549Z,97.20
2023-04-01T01:20:57.945Z,97.00
2023-04-01T01:21:16.729Z,97.10
2023-04-01T01:21:26.108Z,97.10
2023-04-01T01:21:35.544Z,97.10
2023-04-01T01:21:44.928Z,97.10
2023-04-01T01:21:54.357Z,97.20
2023-04-01T01:22:03.739Z,97.50
2023-04-01T01:22:22.523Z,97.60
2023-04-01T01:22:31.886Z,97.70
2023-04-01T01:22:41.266Z,97.80
2023-04-01T01:22:50.656Z,97.80
2023-04-01T01:23:00.045Z,97.90
2023-04-01T01:23:09.446Z,98.00
2023-04-01T01:23:28.230Z,98.30
2023-04-01T01:23:37.606Z,98.40
2023-04-01T01:23:47.005Z,98.50
2023-04-01T01:23:56.406Z,98.50
2023-04-01T01:24:05.798Z,98.60
2023-04-01T01:24:15.182Z,98.70
2023-04-01T01:24:33.997Z,99.10
2023-04-01T01:24:43.407Z,99.20
2023-04-01T01:24:52.812Z,99.10
2023-04-01T01:25:02.200Z,99.20
2023-04-01T01:25:11.567Z,99.10
2023-04-01T01:25:20.983Z,98.90
2023-04-01T01:25:39.739Z,98.80
2023-04-01T01:25:49.167Z,98.80
2023-04-01T01:25:58.552Z,98.90
2023-04-01T01:26:07.931Z,98.70
2023-04-01T01:26:17.337Z,98.70
2023-04-01T01:26:26.715Z,98.80
2023-04-01T01:26:45.465Z,99.00
2023-04-01T01:26:54.883Z,98.90
2023-04-01T01:27:04.294Z,98.90
2023-04-01T01:27:13.755Z,99.00
2023-04-01T01:27:23.174Z,98.90
2023-04-01T01:27:32.533Z,98.90
2023-04-01T01:27:51.378Z,98.80
2023-04-01T01:28:00.765Z,98.90
2023-04-01T01:28:10.162Z,98.90
2023-04-01T01:28:19.562Z,99.00
2023-04-01T01:28:29.010Z,99.00
2023-04-01T01:28:38.352Z,98.90
2023-04-01T01:28:57.179Z,98.70
2023-04-01T01:29:06.569Z,98.70
2023-04-01T01:29:15.953Z,98.70
2023-04-01T01:29:25.348Z,98.70
2023-04-01T01:29:34.776Z,98.80
2023-04-01T01:29:44.177Z,98.70
2023-04-01T01:30:02.979Z,98.60
2023-04-01T01:30:12.368Z,98.60
2023-04-01T01:30:21.791Z,98.60
2023-04-01T01:30:31.156Z,98.60
2023-04-01T01:30:40.609Z,98.50
2023-04-01T01:30:49.992Z,98.60
2023-04-01T01:31:08.805Z,98.60
2023-04-01T01:31:18.195Z,98.60
2023-04-01T01:31:27.621Z,98.50
2023-04-01T01:31:36.933Z,98.50
2023-04-01T01:31:46.313Z,98.50
2023-04-01T01:31:55.738Z,98.60
2023-04-01T01:32:14.526Z,98.70
2023-04-01T01:32:23.904Z,98.80
2023-04-01T01:32:33.346Z,98.80
2023-04-01T01:32:42.768Z,98.90
2023-04-01T01:32:52.159Z,98.90
2023-04-01T01:33:01.568Z,99.00
2023-04-01T01:33:20.320Z,99.00
2023-04-01T01:33:29.705Z,99.00
2023-04-01T01:33:39.112Z,99.10
2023-04-01T01:33:48.482Z,99.30
2023-04-01T01:33:57.867Z,99.30
2023-04-01T01:34:07.274Z,99.30
2023-04-01T01:34:26.142Z,99.20
2023-04-01T01:34:35.536Z,99.20
2023-04-01T01:34:44.928Z,99.30
2023-04-01T01:34:54.314Z,98.80
2023-04-01T01:35:03.733Z,98.40
2023-04-01T01:35:13.111Z,98.30
2023-04-01T01:35:34.832Z,98.20
2023-04-01T01:35:44.055Z,97.90
2023-04-01T01:35:53.466Z,97.80
2023-04-01T01:36:02.861Z,97.90
2023-04-01T01:36:12.211Z,97.90
2023-04-01T01:36:21.636Z,97.80
2023-04-01T01:36:40.360Z,97.90
2023-04-01T01:36:49.751Z,97.90
2023-04-01T01:36:59.164Z,97.90
2023-04-01T01:37:08.556Z,98.00
2023-04-01T01:37:17.929Z,98.10
2023-04-01T01:37:27.313Z,98.00
2023-04-01T01:37:46.099Z,98.00
2023-04-01T01:37:55.497Z,98.00
2023-04-01T01:38:04.890Z,97.90
2023-04-01T01:38:14.286Z,98.00
2023-04-01T01:38:26.381Z,98.00
2023-04-01T01:38:35.740Z,98.00
2023-04-01T01:38:54.500Z,98.30
2023-04-01T01:39:03.910Z,98.30
2023-04-01T01:39:13.256Z,98.30
2023-04-01T01:39:22.677Z,98.00
2023-04-01T01:39:32.067Z,98.00
2023-04-01T01:39:41.503Z,97.80
2023-04-01T01:40:00.289Z,97.50
2023-04-01T01:40:09.675Z,97.40
2023-04-01T01:40:19.093Z,97.40
2023-04-01T01:40:28.478Z,97.30
2023-04-01T01:40:37.880Z,97.20
2023-04-01T01:40:47.246Z,97.20
2023-04-01T01:41:06.009Z,97.20
2023-04-01T01:41:15.387Z,97.10
2023-04-01T01:41:24.805Z,97.10
2023-04-01T01:41:34.216Z,97.00
2023-04-01T01:41:43.662Z,97.00
2023-04-01T01:41:53.064Z,97.10
2023-04-01T01:42:11.880Z,97.20
2023-04-01T01:42:21.295Z,97.10
2023-04-01T01:42:30.679Z,97.10
2023-04-01T01:42:40.142Z,97.00
2023-04-01T01:42:49.757Z,96.90
2023-04-01T01:42:59.139Z,96.80
2023-04-01T01:43:17.983Z,96.80
2023-04-01T01:43:27.373Z,96.80
2023-04-01T01:43:36.758Z,96.90
2023-04-01T01:43:46.141Z,96.70
2023-04-01T01:43:55.524Z,96.50
2023-04-01T01:44:04.942Z,96.50
2023-04-01T01:44:23.777Z,96.50
2023-04-01T01:44:33.162Z,96.60
2023-04-01T01:44:42.548Z,96.50
2023-04-01T01:44:51.945Z,96.40
2023-04-01T01:45:01.358Z,96.50
2023-04-01T01:45:10.797Z,96.60
2023-04-01T01:45:29.613Z,96.70
2023-04-01T01:45:39.022Z,96.70
2023-04-01T01:45:48.470Z,96.80
2023-04-01T01:45:57.833Z,96.80
2023-04-01T01:46:07.236Z,96.80
2023-04-01T01:46:16.629Z,96.70
2023-04-01T01:46:35.448Z,96.70
2023-04-01T01:46:44.805Z,96.70
2023-04-01T01:46:54.190Z,96.70
2023-04-01T01:47:03.604Z,96.70
2023-04-01T01:47:12.996Z,96.70
2023-04-01T01:47:22.448Z,96.70
2023-04-01T01:47:41.302Z,96.70
2023-04-01T01:47:50.694Z,96.70
2023-04-01T01:48:00.091Z,96.70
2023-04-01T01:48:09.460Z,96.70
2023-04-01T01:48:18.824Z,96.50
2023-04-01T01:48:28.225Z,96.50
2023-04-01T01:48:47.089Z,96.50
2023-04-01T01:48:56.477Z,96.60
2023-04-01T01:49:05.833Z,96.60
2023-04-01T01:49:15.240Z,96.70
2023-04-01T01:49:24.671Z,96.70
2023-04-01T01:49:34.046Z,96.70
2023-04-01T01:49:52.818Z,96.80
2023-04-01T01:50:02.317Z,96.90
2023-04-01T01:50:11.641Z,97.00
2023-04-01T01:50:21.018Z,97.00
2023-04-01T01:50:30.409Z,97.10
2023-04-01T01:50:39.804Z,97.10
2023-04-01T01:50:58.568Z,97.30
2023-04-01T01:51:07.976Z,97.40
2023-04-01T01:51:17.340Z,97.50
2023-04-01T01:51:26.727Z,97.60
2023-04-01T01:51:36.099Z,97.50
2023-04-01T01:51:45.480Z,97.30
2023-04-01T01:52:04.309Z,97.30
2023-04-01T01:52:13.711Z,97.40
2023-04-01T01:52:23.102Z,97.40
2023-04-01T01:52:32.520Z,97.50
2023-04-01T01:52:41.908Z,97.50
2023-04-01T01:52:51.328Z,97.40
2023-04-01T01:53:10.114Z,97.30
2023-04-01T01:53:19.525Z,97.40
2023-04-01T01:53:28.910Z,97.40
2023-04-01T01:53:38.321Z,97.30
2023-04-01T01:53:47.705Z,97.30
2023-04-01T01:53:57.105Z,97.50
2023-04-01T01:54:15.852Z,97.80
2023-04-01T01:54:25.263Z,97.70
2023-04-01T01:54:34.659Z,97.70
2023-04-01T01:54:44.034Z,97.70
2023-04-01T01:54:53.456Z,97.80
2023-04-01T01:55:02.863Z,97.70
2023-04-01T01:55:21.748Z,97.50
2023-04-01T01:55:31.441Z,97.50
2023-04-01T01:55:40.578Z,97.60
2023-04-01T01:55:49.997Z,97.50
2023-04-01T01:55:59.383Z,97.40
2023-04-01T01:56:08.767Z,97.20
2023-04-01T01:56:27.561Z,97.20
2023-04-01T01:56:36.961Z,97.20
2023-04-01T01:56:46.378Z,97.20
2023-04-01T01:56:55.914Z,97.20
2023-04-01T01:57:05.240Z,97.20
2023-04-01T01:57:14.612Z,97.00
2023-04-01T01:57:33.495Z,97.00
2023-04-01T01:57:42.811Z,97.00
2023-04-01T01:57:52.258Z,97.10
2023-04-01T01:58:01.624Z,97.10
2023-04-01T01:58:11.015Z,97.00
2023-04-01T01:58:20.433Z,97.00
2023-04-01T01:58:39.198Z,97.10
2023-04-01T01:58:48.607Z,97.10
2023-04-01T01:58:57.990Z,97.10
2023-04-01T01:59:07.397Z,97.00
2023-04-01T01:59:16.782Z,96.90
2023-04-01T01:59:26.173Z,96.90
2023-04-01T01:59:44.965Z,96.70
2023-04-01T01:59:54.350Z,96.70
2023-04-01T02:00:03.754Z,96.80
2023-04-01T02:00:13.127Z,96.80
2023-04-01T02:00:22.514Z,96.80
2023-04-01T02:00:31.990Z,96.80
2023-04-01T02:00:50.788Z,96.70
2023-04-01T02:01:00.188Z,96.60
2023-04-01T02:01:09.627Z,96.60
2023-04-01T02:01:19.055Z,96.70
2023-04-01T02:01:28.437Z,96.70
2023-04-01T02:01:37.798Z,96.80
2023-04-01T02:01:56.655Z,96.90
2023-04-01T02:02:05.998Z,97.00
2023-04-01T02:02:15.436Z,96.90
2023-04-01T02:02:24.821Z,97.00
2023-04-01T02:02:34.525Z,97.00
2023-04-01T02:02:43.855Z,97.00
2023-04-01T02:03:02.715Z,97.00
2023-04-01T02:03:12.012Z,97.00
2023-04-01T02:03:21.404Z,97.00
2023-04-01T02:03:30.799Z,97.00
2023-04-01T02:03:40.226Z,97.00
2023-04-01T02:03:49.619Z,97.00
2023-04-01T02:04:08.498Z,97.00
2023-04-01T02:04:17.834Z,96.90
2023-04-01T02:04:27.323Z,96.80
2023-04-01T02:04:36.669Z,96.80
2023-04-01T02:04:46.054Z,96.70
2023-04-01T02:04:55.554Z,96.70
2023-04-01T02:05:14.181Z,96.70
2023-04-01T02:05:23.564Z,96.80
2023-04-01T02:05:33.099Z,96.80
2023-04-01T02:05:42.339Z,96.90
2023-04-01T02:05:51.734Z,96.90
2023-04-01T02:06:01.124Z,97.00
2023-04-01T02:06:19.889Z,97.20
2023-04-01T02:06:29.276Z,97.30
2023-04-01T02:06:38.658Z,97.20
2023-04-01T02:06:48.053Z,97.30
2023-04-01T02:07:00.143Z,97.40
2023-04-01T02:07:09.546Z,97.40
2023-04-01T02:07:28.350Z,97.30
2023-04-01T02:07:37.737Z,97.20
2023-04-01T02:07:47.141Z,97.20
2023-04-01T02:07:56.539Z,97.20
2023-04-01T02:08:05.944Z,97.00
2023-04-01T02:08:15.426Z,96.70
2023-04-01T02:08:34.115Z,96.70
2023-04-01T02:08:43.504Z,96.80
2023-04-01T02:08:53.029Z,96.80
2023-04-01T02:09:02.283Z,96.90
2023-04-01T02:09:11.890Z,96.90
2023-04-01T02:09:21.238Z,96.70
2023-04-01T02:09:40.006Z,96.60
2023-04-01T02:09:49.394Z,96.50
2023-04-01T02:09:58.778Z,96.50
2023-04-01T02:10:08.173Z,96.70
2023-04-01T02:10:17.578Z,96.70
2023-04-01T02:10:26.964Z,96.70
2023-04-01T02:10:45.799Z,96.70
2023-04-01T02:10:55.195Z,96.70
2023-04-01T02:11:04.576Z,96.70
2023-04-01T02:11:13.964Z,96.60
2023-04-01T02:11:23.359Z,96.50
2023-04-01T02:11:32.771Z,96.60
2023-04-01T02:11:51.594Z,96.60
2023-04-01T02:12:01.014Z,96.70
2023-04-01T02:12:10.443Z,96.70
2023-04-01T02:12:19.858Z,96.60
2023-04-01T02:12:29.247Z,96.50
2023-04-01T02:12:38.627Z,96.40
2023-04-01T02:12:57.449Z,96.60
2023-04-01T02:13:06.854Z,96.80
2023-04-01T02:13:16.268Z,96.90
2023-04-01T02:13:25.679Z,96.90
2023-04-01T02:13:35.062Z,96.70
2023-04-01T02:13:44.492Z,96.70
2023-04-01T02:14:03.259Z,96.70
2023-04-01T02:14:12.676Z,96.70
2023-04-01T02:14:22.049Z,96.80
2023-04-01T02:14:31.482Z,96.90
2023-04-01T02:14:40.886Z,96.80
2023-04-01T02:14:50.311Z,96.80
2023-04-01T02:15:09.094Z,96.40
2023-04-01T02:15:18.491Z,96.30
2023-04-01T02:15:27.863Z,96.40
2023-04-01T02:15:37.264Z,96.50
2023-04-01T02:15:46.646Z,96.20
2023-04-01T02:15:56.076Z,96.20
2023-04-01T02:16:14.900Z,96.20
2023-04-01T02:16:24.291Z,96.20
2023-04-01T02:16:33.709Z,96.10
2023-04-01T02:16:43.027Z,96.00
2023-04-01T02:16:52.413Z,96.00
2023-04-01T02:17:01.807Z,96.00
2023-04-01T02:17:20.650Z,96.00
2023-04-01T02:17:30.056Z,95.90
2023-04-01T02:17:39.516Z,95.60
2023-04-01T02:17:48.921Z,95.50
2023-04-01T02:17:58.398Z,95.50
2023-04-01T02:18:07.766Z,95.50
2023-04-01T02:18:26.483Z,95.80
2023-04-01T02:18:35.881Z,95.90
2023-04-01T02:18:45.272Z,95.70
2023-04-01T02:18:54.658Z,95.80
2023-04-01T02:19:04.067Z,95.70
2023-04-01T02:19:13.441Z,95.80
2023-04-01T02:19:32.186Z,95.80
2023-04-01T02:19:41.580Z,95.90
2023-04-01T02:19:50.973Z,95.80
2023-04-01T02:20:00.386Z,95.90
2023-04-01T02:20:09.850Z,96.00
2023-04-01T02:20:19.177Z,96.10
2023-04-01T02:20:37.970Z,96.30
2023-04-01T02:20:47.391Z,96.40
2023-04-01T02:20:56.789Z,96.40
2023-04-01T02:21:06.180Z,96.50
2023-04-01T02:21:15.617Z,96.60
2023-04-01T02:21:25.017Z,96.60